Time;durP1;ratioP1;P1;durP2;ratioP2;P2;SDS_P1;SDS_P2;PMS_P1;PMS_P2;Temp;Humidity;BMP_temperature;BMP_pressure;BME280_temperature;BME280_humidity;BME280_pressure;Samples;Min_cycle;Max_cycle;Signal;HPM_P1;HPM_P2
2024/01/26 00:00:13;;;;;;;28.23;9.60;;;;;;;;;;6148455;28;20542;-84
2024/01/26 00:03:15;;;;;;;24.83;9.05;;;;;;;;;;6141521;28;20048;-84
2024/01/26 00:06:17;;;;;;;25.42;9.77;;;;;;;;;;6160521;28;20047;-84
2024/01/26 00:09:19;;;;;;;26.60;10.20;;;;;;;;;;6141985;28;20043;-84
2024/01/26 00:12:20;;;;;;;21.55;9.70;;;;;;;;;;6124472;28;20117;-84
2024/01/26 00:15:22;;;;;;;25.17;9.52;;;;;;;;;;6139138;28;20043;-84
2024/01/26 00:18:24;;;;;;;19.63;8.57;;;;;;;;;;6115225;28;20039;-84
2024/01/26 00:21:26;;;;;;;20.85;7.88;;;;;;;;;;6119207;28;20054;-84
2024/01/26 00:24:28;;;;;;;19.15;6.90;;;;;;;;;;6163538;28;20082;-84
2024/01/26 00:27:30;;;;;;;17.63;6.40;;;;;;;;;;6145049;28;20047;-84
2024/01/26 00:30:32;;;;;;;15.30;6.30;;;;;;;;;;6150809;28;20043;-84
2024/01/26 00:33:34;;;;;;;18.27;7.57;;;;;;;;;;6134452;28;20055;-83
2024/01/26 00:36:35;;;;;;;26.60;9.48;;;;;;;;;;6133590;28;20053;-84
2024/01/26 00:39:38;;;;;;;25.05;9.55;;;;;;;;;;6134328;28;20126;-84
2024/01/26 00:42:40;;;;;;;18.93;8.43;;;;;;;;;;6131226;28;20625;-83
2024/01/26 00:45:41;;;;;;;24.08;10.63;;;;;;;;;;6154489;28;20195;-83
2024/01/26 00:48:43;;;;;;;24.17;9.60;;;;;;;;;;6123588;28;20046;-84
2024/01/26 00:51:45;;;;;;;21.58;9.35;;;;;;;;;;6126539;28;20191;-84
2024/01/26 00:54:47;;;;;;;22.27;8.18;;;;;;;;;;6150812;28;20395;-84
2024/01/26 00:57:49;;;;;;;17.17;8.00;;;;;;;;;;6137980;28;20055;-84
2024/01/26 01:00:51;;;;;;;18.42;6.68;;;;;;;;;;6142482;28;20117;-86
2024/01/26 01:03:52;;;;;;;19.15;6.95;;;;;;;;;;6123016;28;20050;-85
2024/01/26 01:06:54;;;;;;;21.20;9.35;;;;;;;;;;6160844;28;20573;-85
2024/01/26 01:09:56;;;;;;;20.55;8.52;;;;;;;;;;6144818;28;20612;-85
2024/01/26 01:12:57;;;;;;;15.20;8.15;;;;;;;;;;6141400;28;20474;-85
2024/01/26 01:16:00;;;;;;;21.95;7.75;;;;;;;;;;6157260;28;20120;-85
2024/01/26 01:19:02;;;;;;;17.52;6.78;;;;;;;;;;6124599;28;20051;-86
2024/01/26 01:22:04;;;;;;;18.30;6.32;;;;;;;;;;6121232;28;20050;-86
2024/01/26 01:25:07;;;;;;;17.42;6.65;;;;;;;;;;6148139;28;20088;-85
2024/01/26 01:28:09;;;;;;;17.48;7.38;;;;;;;;;;6139941;28;20051;-84
2024/01/26 01:31:11;;;;;;;14.27;6.47;;;;;;;;;;6144458;28;20118;-86
2024/01/26 01:34:12;;;;;;;17.42;7.20;;;;;;;;;;6143741;28;20047;-85
2024/01/26 01:37:14;;;;;;;14.88;6.82;;;;;;;;;;6156623;28;20047;-86
2024/01/26 01:40:16;;;;;;;14.95;6.70;;;;;;;;;;6145301;28;20053;-85
2024/01/26 01:43:18;;;;;;;13.05;6.35;;;;;;;;;;6141185;28;20080;-86
2024/01/26 01:46:20;;;;;;;15.85;6.05;;;;;;;;;;6159857;28;20039;-85
2024/01/26 01:49:22;;;;;;;11.90;6.30;;;;;;;;;;6140301;28;20110;-84
2024/01/26 01:52:27;;;;;;;17.77;7.20;;;;;;;;;;6143718;28;20138;-85
2024/01/26 01:55:29;;;;;;;16.75;6.90;;;;;;;;;;6162556;28;20128;-86
2024/01/26 01:58:33;;;;;;;12.88;6.70;;;;;;;;;;6131812;28;20102;-85
2024/01/26 02:01:35;;;;;;;17.55;7.50;;;;;;;;;;6152225;28;20682;-85
2024/01/26 02:04:37;;;;;;;16.63;7.82;;;;;;;;;;6135300;28;20043;-86
2024/01/26 02:07:39;;;;;;;18.10;8.15;;;;;;;;;;6158229;28;20509;-84
2024/01/26 02:10:41;;;;;;;18.85;8.57;;;;;;;;;;6156045;28;20047;-84
2024/01/26 02:13:42;;;;;;;16.50;6.65;;;;;;;;;;6145404;28;20122;-84
2024/01/26 02:16:58;;;;;;;6.15;3.10;;;;;;;;;;6123711;28;20039;-84
2024/01/26 02:20:00;;;;;;;6.38;2.92;;;;;;;;;;6144618;28;20051;-85
2024/01/26 02:23:02;;;;;;;4.47;2.60;;;;;;;;;;6167121;28;20047;-85
2024/01/26 02:26:04;;;;;;;3.45;2.00;;;;;;;;;;6122421;28;20556;-85
2024/01/26 02:29:05;;;;;;;3.85;2.20;;;;;;;;;;6158210;28;20050;-86
2024/01/26 02:32:09;;;;;;;4.38;2.10;;;;;;;;;;6150646;28;20050;-86
2024/01/26 02:35:10;;;;;;;6.22;2.40;;;;;;;;;;6157635;28;20051;-85
2024/01/26 02:38:12;;;;;;;6.82;2.83;;;;;;;;;;6146298;28;20589;-85
2024/01/26 02:41:16;;;;;;;4.35;2.75;;;;;;;;;;6148888;28;20035;-86
2024/01/26 02:44:17;;;;;;;;;;;;;;;;;;6146853;28;20051;-86
2024/01/26 02:47:19;;;;;;;5.93;3.03;;;;;;;;;;6146756;28;20378;-86
2024/01/26 02:50:20;;;;;;;8.35;2.60;;;;;;;;;;6128167;28;20609;-84
2024/01/26 02:53:22;;;;;;;7.15;3.17;;;;;;;;;;6155443;28;20086;-84
2024/01/26 02:56:24;;;;;;;6.85;3.53;;;;;;;;;;6149785;28;20047;-86
2024/01/26 02:59:26;;;;;;;8.13;3.22;;;;;;;;;;6145788;28;20055;-85
2024/01/26 03:02:28;;;;;;;8.80;3.58;;;;;;;;;;6146999;28;20554;-85
2024/01/26 03:05:30;;;;;;;8.05;3.70;;;;;;;;;;6149938;28;20051;-85
2024/01/26 03:08:31;;;;;;;7.53;3.58;;;;;;;;;;6148419;28;20043;-86
2024/01/26 03:11:38;;;;;;;9.55;4.15;;;;;;;;;;6138851;28;20055;-85
2024/01/26 03:14:40;;;;;;;11.05;4.15;;;;;;;;;;6141937;28;20396;-84
2024/01/26 03:17:42;;;;;;;8.30;3.90;;;;;;;;;;6137505;28;20043;-85
2024/01/26 03:20:44;;;;;;;9.80;4.43;;;;;;;;;;6120181;28;20047;-85
2024/01/26 03:23:46;;;;;;;8.63;4.00;;;;;;;;;;6135934;28;20161;-85
2024/01/26 03:26:48;;;;;;;7.00;3.78;;;;;;;;;;6138164;28;20286;-84
2024/01/26 03:29:50;;;;;;;9.20;3.97;;;;;;;;;;6139179;28;20048;-84
2024/01/26 03:32:52;;;;;;;11.35;4.82;;;;;;;;;;6144132;28;20454;-86
2024/01/26 03:35:53;;;;;;;11.70;4.20;;;;;;;;;;6155966;28;20062;-85
2024/01/26 03:38:55;;;;;;;12.98;4.82;;;;;;;;;;6137018;28;20043;-86
2024/01/26 03:41:57;;;;;;;10.32;4.60;;;;;;;;;;6121903;28;20055;-85
2024/01/26 03:45:00;;;;;;;10.80;4.55;;;;;;;;;;6121900;28;20043;-85
2024/01/26 03:48:02;;;;;;;11.43;4.68;;;;;;;;;;6138973;28;20514;-85
2024/01/26 03:51:04;;;;;;;8.50;3.75;;;;;;;;;;6120196;28;20055;-84
2024/01/26 03:54:06;;;;;;;13.07;5.18;;;;;;;;;;6136266;28;20050;-85
2024/01/26 03:57:08;;;;;;;10.00;4.82;;;;;;;;;;6141115;28;20059;-85
2024/01/26 04:00:10;;;;;;;10.13;4.45;;;;;;;;;;6133854;28;20306;-84
2024/01/26 04:03:16;;;;;;;9.25;4.38;;;;;;;;;;6131792;28;20062;-85
2024/01/26 04:06:18;;;;;;;8.00;4.30;;;;;;;;;;6141434;28;20502;-84
2024/01/26 04:09:20;;;;;;;10.23;4.57;;;;;;;;;;6141791;28;20452;-85
2024/01/26 04:12:23;;;;;;;8.73;4.47;;;;;;;;;;6125642;28;20052;-85
2024/01/26 04:15:25;;;;;;;10.45;4.68;;;;;;;;;;6139872;28;20507;-85
2024/01/26 04:18:26;;;;;;;9.68;4.57;;;;;;;;;;6134094;28;20075;-85
2024/01/26 04:21:28;;;;;;;11.55;4.88;;;;;;;;;;6139842;28;20046;-84
2024/01/26 04:24:30;;;;;;;11.07;5.10;;;;;;;;;;6153230;28;20058;-86
2024/01/26 04:27:32;;;;;;;8.90;4.72;;;;;;;;;;6148773;28;20106;-86
2024/01/26 04:30:36;;;;;;;8.57;4.47;;;;;;;;;;6145079;28;20051;-86
2024/01/26 04:33:38;;;;;;;11.55;4.88;;;;;;;;;;6144603;28;20058;-87
2024/01/26 04:36:47;;;;;;;9.63;4.60;;;;;;;;;;6135346;28;20043;-87
2024/01/26 04:39:50;;;;;;;9.63;4.50;;;;;;;;;;6149454;28;20050;-87
2024/01/26 04:42:52;;;;;;;;;;;;;;;;;;6120898;28;20047;-86
2024/01/26 04:45:54;;;;;;;9.32;4.78;;;;;;;;;;6142515;28;20125;-85
2024/01/26 04:48:56;;;;;;;10.90;5.20;;;;;;;;;;6127512;28;20046;-86
2024/01/26 04:51:58;;;;;;;11.35;5.32;;;;;;;;;;6134196;28;20507;-86
2024/01/26 04:55:00;;;;;;;13.52;5.93;;;;;;;;;;6120168;28;20042;-86
2024/01/26 04:58:02;;;;;;;9.05;4.80;;;;;;;;;;6122435;28;20057;-86
2024/01/26 05:01:04;;;;;;;9.50;5.32;;;;;;;;;;6139978;28;20055;-85
2024/01/26 05:04:06;;;;;;;10.43;5.80;;;;;;;;;;6133648;28;20134;-85
2024/01/26 05:07:08;;;;;;;10.75;5.13;;;;;;;;;;6147804;28;20047;-85
2024/01/26 05:10:14;;;;;;;11.85;5.05;;;;;;;;;;6139968;28;20039;-85
2024/01/26 05:13:16;;;;;;;10.10;5.07;;;;;;;;;;6140099;28;20058;-85
2024/01/26 05:16:18;;;;;;;10.98;5.25;;;;;;;;;;6154618;28;20116;-86
2024/01/26 05:19:19;;;;;;;13.35;6.82;;;;;;;;;;6145298;28;20058;-86
2024/01/26 05:22:21;;;;;;;10.02;4.63;;;;;;;;;;6151413;28;20125;-85
2024/01/26 05:25:23;;;;;;;10.13;4.80;;;;;;;;;;6127491;28;20181;-87
2024/01/26 05:28:25;;;;;;;9.52;5.00;;;;;;;;;;6144063;28;20057;-85
2024/01/26 05:31:27;;;;;;;8.80;4.78;;;;;;;;;;6148871;28;20177;-87
2024/01/26 05:34:29;;;;;;;10.05;4.68;;;;;;;;;;6151338;28;20057;-86
2024/01/26 05:37:31;;;;;;;8.35;4.45;;;;;;;;;;6150908;28;20481;-87
2024/01/26 05:40:33;;;;;;;11.27;5.10;;;;;;;;;;6149087;28;20051;-86
2024/01/26 05:43:35;;;;;;;10.07;4.80;;;;;;;;;;6162208;28;20043;-85
2024/01/26 05:46:37;;;;;;;10.43;6.28;;;;;;;;;;6143565;28;20436;-85
2024/01/26 05:49:39;;;;;;;10.82;4.70;;;;;;;;;;6147618;28;20087;-85
2024/01/26 05:52:41;;;;;;;8.05;4.28;;;;;;;;;;6149515;28;20051;-85
2024/01/26 05:55:43;;;;;;;9.17;4.50;;;;;;;;;;6125838;28;20507;-86
2024/01/26 05:58:45;;;;;;;8.90;4.30;;;;;;;;;;6123803;28;20988;-84
2024/01/26 06:01:47;;;;;;;8.13;3.92;;;;;;;;;;6145942;28;20039;-85
2024/01/26 06:04:49;;;;;;;8.33;4.50;;;;;;;;;;6145641;28;20043;-86
2024/01/26 06:07:51;;;;;;;7.20;3.80;;;;;;;;;;6147577;28;20097;-85
2024/01/26 06:10:55;;;;;;;7.70;4.00;;;;;;;;;;6144614;28;21132;-86
2024/01/26 06:13:57;;;;;;;7.55;3.75;;;;;;;;;;6146306;28;20047;-85
2024/01/26 06:16:59;;;;;;;6.63;4.20;;;;;;;;;;6132873;28;20036;-87
2024/01/26 06:20:04;;;;;;;6.57;3.47;;;;;;;;;;6141852;28;20066;-86
2024/01/26 06:23:05;;;;;;;8.52;3.53;;;;;;;;;;6141509;28;20083;-85
2024/01/26 06:26:07;;;;;;;9.40;4.05;;;;;;;;;;6146916;28;20560;-85
2024/01/26 06:29:09;;;;;;;6.43;3.70;;;;;;;;;;6143828;28;20055;-85
2024/01/26 06:32:12;;;;;;;7.40;3.63;;;;;;;;;;6144097;28;20047;-86
2024/01/26 06:35:14;;;;;;;5.10;2.95;;;;;;;;;;6159225;28;20050;-85
2024/01/26 06:38:15;;;;;;;6.35;3.45;;;;;;;;;;6148252;28;20046;-85
2024/01/26 06:41:17;;;;;;;5.43;3.05;;;;;;;;;;6129244;28;20074;-85
2024/01/26 06:44:19;;;;;;;6.43;2.92;;;;;;;;;;6146195;28;20417;-86
2024/01/26 06:47:20;;;;;;;4.90;2.90;;;;;;;;;;6131333;28;20046;-85
2024/01/26 06:50:22;;;;;;;5.50;3.00;;;;;;;;;;6146814;28;20046;-85
2024/01/26 06:53:24;;;;;;;5.57;2.78;;;;;;;;;;6142804;28;20058;-85
2024/01/26 06:56:25;;;;;;;4.28;2.72;;;;;;;;;;6142582;28;20078;-87
2024/01/26 06:59:29;;;;;;;4.07;2.58;;;;;;;;;;6142524;28;20054;-88
2024/01/26 07:02:31;;;;;;;5.15;2.90;;;;;;;;;;6119860;28;20054;-87
2024/01/26 07:05:35;;;;;;;5.78;2.85;;;;;;;;;;6142296;28;20054;-87
2024/01/26 07:08:37;;;;;;;4.15;2.88;;;;;;;;;;6136621;28;20126;-88
2024/01/26 07:11:43;;;;;;;4.40;2.75;;;;;;;;;;6142872;28;20039;-86
2024/01/26 07:14:45;;;;;;;4.95;2.83;;;;;;;;;;6139467;28;20082;-87
2024/01/26 07:17:49;;;;;;;5.18;2.42;;;;;;;;;;6140441;28;20043;-86
2024/01/26 07:20:51;;;;;;;3.08;2.25;;;;;;;;;;6144624;28;20050;-89
2024/01/26 07:23:58;;;;;;;3.75;2.25;;;;;;;;;;6123831;28;20046;-87
2024/01/26 07:27:08;;;;;;;3.08;2.00;;;;;;;;;;6112544;28;20086;-85
2024/01/26 07:30:13;;;;;;;3.85;1.90;;;;;;;;;;6130868;28;20042;-86
2024/01/26 07:33:15;;;;;;;3.65;2.60;;;;;;;;;;6148340;28;20059;-86
2024/01/26 07:36:17;;;;;;;4.32;2.70;;;;;;;;;;6136811;28;20050;-86
2024/01/26 07:39:21;;;;;;;2.97;1.97;;;;;;;;;;6135155;28;20051;-86
2024/01/26 07:42:23;;;;;;;4.05;2.00;;;;;;;;;;6122551;28;20160;-88
2024/01/26 07:45:26;;;;;;;4.20;2.08;;;;;;;;;;6128735;28;20074;-86
2024/01/26 07:48:27;;;;;;;4.35;2.13;;;;;;;;;;6143443;28;20058;-87
2024/01/26 07:51:30;;;;;;;3.03;1.92;;;;;;;;;;6132571;28;20047;-87
2024/01/26 07:54:32;;;;;;;3.65;2.50;;;;;;;;;;6144549;28;20051;-87
2024/01/26 07:57:37;;;;;;;3.00;2.13;;;;;;;;;;6109373;28;20051;-86
2024/01/26 08:00:42;;;;;;;3.92;2.75;;;;;;;;;;6149466;28;20050;-86
2024/01/26 08:03:47;;;;;;;4.25;2.47;;;;;;;;;;6145979;28;20054;-87
2024/01/26 08:06:51;;;;;;;2.75;2.00;;;;;;;;;;6174236;28;20047;-89
2024/01/26 08:09:55;;;;;;;5.32;2.22;;;;;;;;;;6178456;28;20141;-87
2024/01/26 08:12:57;;;;;;;3.40;2.35;;;;;;;;;;6164472;28;20425;-86
2024/01/26 08:15:59;;;;;;;3.45;2.33;;;;;;;;;;6154593;28;20098;-86
2024/01/26 08:19:02;;;;;;;2.85;2.08;;;;;;;;;;6140821;28;20055;-87
2024/01/26 08:22:04;;;;;;;5.75;2.40;;;;;;;;;;6127644;28;20423;-87
2024/01/26 08:25:07;;;;;;;2.47;1.67;;;;;;;;;;6149955;28;20048;-87
2024/01/26 08:28:11;;;;;;;2.92;1.85;;;;;;;;;;6111722;28;20051;-87
2024/01/26 08:31:14;;;;;;;4.35;2.28;;;;;;;;;;6155587;28;20046;-87
2024/01/26 08:34:18;;;;;;;2.67;1.90;;;;;;;;;;6142775;28;20046;-87
2024/01/26 08:37:20;;;;;;;3.63;1.98;;;;;;;;;;6141264;28;20121;-87
2024/01/26 08:40:22;;;;;;;3.47;2.08;;;;;;;;;;6146456;28;20078;-87
2024/01/26 08:43:24;;;;;;;2.90;2.10;;;;;;;;;;6104229;28;20055;-86
2024/01/26 08:46:26;;;;;;;4.03;2.53;;;;;;;;;;6155976;28;20051;-86
2024/01/26 08:49:28;;;;;;;2.63;1.95;;;;;;;;;;6150530;28;20050;-87
2024/01/26 08:52:31;;;;;;;3.30;2.13;;;;;;;;;;6133001;28;20046;-86
2024/01/26 08:55:33;;;;;;;3.33;2.10;;;;;;;;;;6134012;28;20043;-87
2024/01/26 08:58:36;;;;;;;3.10;1.70;;;;;;;;;;6156229;28;20062;-86
2024/01/26 09:01:39;;;;;;;4.40;2.33;;;;;;;;;;6141685;28;20055;-87
2024/01/26 09:04:43;;;;;;;4.05;2.20;;;;;;;;;;6148711;28;20124;-86
2024/01/26 09:07:45;;;;;;;3.17;1.85;;;;;;;;;;6136170;28;20065;-85
2024/01/26 09:10:47;;;;;;;2.78;1.90;;;;;;;;;;6137909;28;20425;-88
2024/01/26 09:13:49;;;;;;;3.85;2.10;;;;;;;;;;6106620;28;20077;-87
2024/01/26 09:16:51;;;;;;;4.82;2.28;;;;;;;;;;6118139;28;20137;-87
2024/01/26 09:19:58;;;;;;;3.50;2.05;;;;;;;;;;6101124;28;20147;-88
2024/01/26 09:23:03;;;;;;;4.05;2.05;;;;;;;;;;6097384;28;20162;-87
2024/01/26 09:26:05;;;;;;;2.03;1.67;;;;;;;;;;6106393;28;20134;-87
2024/01/26 09:29:07;;;;;;;3.05;1.60;;;;;;;;;;6127906;28;20058;-87
2024/01/26 09:32:12;;;;;;;4.10;1.85;;;;;;;;;;6132896;28;20047;-86
2024/01/26 09:35:15;;;;;;;4.05;1.55;;;;;;;;;;6140063;28;20050;-87
2024/01/26 09:38:19;;;;;;;2.50;1.55;;;;;;;;;;6137973;28;20057;-86
2024/01/26 09:41:21;;;;;;;3.55;1.88;;;;;;;;;;6121054;28;20059;-87
2024/01/26 09:44:23;;;;;;;3.40;2.13;;;;;;;;;;6108664;28;20807;-85
2024/01/26 09:47:26;;;;;;;2.65;1.77;;;;;;;;;;6125929;28;20163;-85
2024/01/26 09:50:27;;;;;;;2.30;1.92;;;;;;;;;;6149818;28;20051;-87
2024/01/26 09:53:31;;;;;;;2.80;1.88;;;;;;;;;;6124275;28;20478;-87
2024/01/26 09:56:34;;;;;;;2.72;1.75;;;;;;;;;;6113058;28;20511;-88
2024/01/26 09:59:38;;;;;;;2.22;2.00;;;;;;;;;;6121318;28;20089;-88
2024/01/26 10:02:44;;;;;;;3.17;1.80;;;;;;;;;;6140571;28;20066;-86
2024/01/26 10:05:48;;;;;;;3.08;1.73;;;;;;;;;;6135909;28;20075;-87
2024/01/26 10:08:53;;;;;;;3.95;1.90;;;;;;;;;;6120996;28;20047;-86
2024/01/26 10:11:55;;;;;;;3.80;2.05;;;;;;;;;;6123457;28;20398;-87
2024/01/26 10:15:08;;;;;;;3.43;2.47;;;;;;;;;;6124480;28;20494;-86
2024/01/26 10:18:11;;;;;;;2.53;1.88;;;;;;;;;;6121970;28;20517;-86
2024/01/26 10:21:16;;;;;;;3.77;2.20;;;;;;;;;;6135831;28;20130;-87
2024/01/26 10:24:22;;;;;;;4.10;1.98;;;;;;;;;;6138934;28;20117;-87
2024/01/26 10:27:23;;;;;;;2.92;2.10;;;;;;;;;;6129284;28;20093;-85
2024/01/26 10:30:26;;;;;;;3.70;2.00;;;;;;;;;;6125237;28;20054;-86
2024/01/26 10:33:31;;;;;;;3.17;1.85;;;;;;;;;;6133334;28;20520;-87
2024/01/26 10:36:36;;;;;;;3.35;2.00;;;;;;;;;;6138982;28;20573;-88
2024/01/26 10:39:40;;;;;;;3.65;1.77;;;;;;;;;;6142093;28;20120;-85
2024/01/26 10:42:45;;;;;;;2.58;1.50;;;;;;;;;;6126040;28;20399;-87
2024/01/26 10:45:48;;;;;;;1.40;1.30;;;;;;;;;;6161794;28;20078;-85
2024/01/26 10:48:53;;;;;;;1.25;0.80;;;;;;;;;;6168662;28;20039;-86
2024/01/26 10:52:00;;;;;;;1.40;0.90;;;;;;;;;;6120596;28;20913;-86
2024/01/26 10:55:05;;;;;;;0.95;0.70;;;;;;;;;;6131907;28;20099;-85
2024/01/26 10:58:07;;;;;;;0.60;0.50;;;;;;;;;;6112649;28;20054;-86
2024/01/26 11:01:11;;;;;;;1.17;0.70;;;;;;;;;;6136855;28;20051;-87
2024/01/26 11:04:13;;;;;;;0.85;0.60;;;;;;;;;;6118659;28;20055;-85
2024/01/26 11:07:20;;;;;;;0.82;0.60;;;;;;;;;;6120471;28;20541;-86
2024/01/26 11:10:25;;;;;;;0.82;0.70;;;;;;;;;;6141156;28;20054;-85
2024/01/26 11:13:27;;;;;;;1.33;0.60;;;;;;;;;;6136274;28;20055;-85
2024/01/26 11:16:33;;;;;;;0.75;0.60;;;;;;;;;;6153461;28;20413;-87
2024/01/26 11:19:35;;;;;;;0.40;0.40;;;;;;;;;;6126089;28;20043;-87
2024/01/26 11:22:37;;;;;;;1.02;0.50;;;;;;;;;;6143619;28;20059;-84
2024/01/26 11:25:43;;;;;;;1.40;0.70;;;;;;;;;;6109356;28;20166;-85
2024/01/26 11:28:47;;;;;;;0.88;0.55;;;;;;;;;;6117028;28;20311;-86
2024/01/26 11:31:49;;;;;;;1.88;0.60;;;;;;;;;;6137214;28;20047;-86
2024/01/26 11:35:00;;;;;;;1.48;0.77;;;;;;;;;;6131671;28;20093;-86
2024/01/26 11:38:03;;;;;;;0.50;0.50;;;;;;;;;;6134216;28;20055;-87
2024/01/26 11:41:06;;;;;;;1.55;0.43;;;;;;;;;;6139176;28;20089;-86
2024/01/26 11:44:19;;;;;;;0.43;0.40;;;;;;;;;;6131686;28;20043;-86
2024/01/26 11:47:27;;;;;;;0.40;0.40;;;;;;;;;;6135980;28;20513;-86
2024/01/26 11:50:29;;;;;;;1.08;0.70;;;;;;;;;;6128723;28;20130;-85
2024/01/26 11:53:33;;;;;;;1.15;0.70;;;;;;;;;;6155839;28;20172;-86
2024/01/26 11:56:35;;;;;;;1.08;0.55;;;;;;;;;;6151885;28;20503;-85
2024/01/26 11:59:37;;;;;;;0.70;0.50;;;;;;;;;;6148943;28;20047;-86
2024/01/26 12:02:39;;;;;;;1.77;0.40;;;;;;;;;;6136474;28;20133;-86
2024/01/26 12:05:41;;;;;;;1.00;0.30;;;;;;;;;;6119639;28;20047;-85
2024/01/26 12:08:46;;;;;;;0.40;0.30;;;;;;;;;;6134444;28;20186;-86
2024/01/26 12:11:49;;;;;;;0.40;0.40;;;;;;;;;;6127521;28;20043;-86
2024/01/26 12:14:51;;;;;;;1.88;0.50;;;;;;;;;;6141287;28;20141;-86
2024/01/26 12:17:57;;;;;;;0.40;0.40;;;;;;;;;;6118168;28;20631;-86
2024/01/26 12:21:00;;;;;;;0.20;0.20;;;;;;;;;;6117807;28;20417;-87
2024/01/26 12:24:08;;;;;;;0.63;0.40;;;;;;;;;;6162499;28;20054;-85
2024/01/26 12:27:12;;;;;;;0.73;0.35;;;;;;;;;;6138490;28;20050;-87
2024/01/26 12:30:15;;;;;;;0.20;0.20;;;;;;;;;;6110287;28;20058;-87
2024/01/26 12:33:19;;;;;;;0.20;0.20;;;;;;;;;;6131037;28;20517;-88
2024/01/26 12:36:33;;;;;;;0.50;0.30;;;;;;;;;;6096203;28;20450;-88
2024/01/26 12:39:37;;;;;;;10.27;4.05;;;;;;;;;;6101210;28;25642;-86
2024/01/26 12:42:47;;;;;;;0.40;0.40;;;;;;;;;;6099745;28;20054;-85
2024/01/26 12:45:52;;;;;;;19.77;8.25;;;;;;;;;;6137868;28;20042;-87
2024/01/26 12:49:01;;;;;;;2.47;0.50;;;;;;;;;;6105044;28;20042;-84
2024/01/26 12:52:04;;;;;;;2.43;0.67;;;;;;;;;;6132513;28;21266;-84
2024/01/26 12:55:06;;;;;;;2.10;0.60;;;;;;;;;;6125811;28;20652;-86
2024/01/26 12:58:08;;;;;;;0.70;0.70;;;;;;;;;;6127715;28;20039;-85
2024/01/26 13:01:10;;;;;;;5.80;1.67;;;;;;;;;;6136482;28;20065;-85
2024/01/26 13:04:13;;;;;;;2.40;0.80;;;;;;;;;;6135693;28;20525;-87
2024/01/26 13:07:18;;;;;;;4.80;1.35;;;;;;;;;;6141964;28;20046;-89
2024/01/26 13:10:22;;;;;;;5.00;1.98;;;;;;;;;;6125149;28;20047;-86
2024/01/26 13:13:27;;;;;;;0.88;0.40;;;;;;;;;;6115866;28;20101;-86
2024/01/26 13:16:29;;;;;;;6.30;2.55;;;;;;;;;;6130568;28;20050;-86
2024/01/26 13:19:31;;;;;;;6.80;3.03;;;;;;;;;;6113835;28;20047;-86
2024/01/26 13:22:33;;;;;;;4.47;2.00;;;;;;;;;;6130428;28;20055;-86
2024/01/26 13:25:35;;;;;;;5.25;1.48;;;;;;;;;;6136880;28;20043;-86
2024/01/26 13:28:39;;;;;;;25.27;9.07;;;;;;;;;;6109745;28;20047;-87
2024/01/26 13:31:41;;;;;;;5.68;2.25;;;;;;;;;;6142728;28;20587;-87
2024/01/26 13:34:43;;;;;;;1.52;0.73;;;;;;;;;;6148670;28;20062;-88
2024/01/26 13:37:48;;;;;;;6.03;1.90;;;;;;;;;;6122835;28;20122;-87
2024/01/26 13:40:50;;;;;;;3.13;0.90;;;;;;;;;;6141309;28;20101;-87
2024/01/26 13:43:53;;;;;;;5.50;2.65;;;;;;;;;;6113297;28;20047;-88
2024/01/26 13:46:54;;;;;;;3.92;1.42;;;;;;;;;;6133280;28;20524;-88
2024/01/26 13:49:56;;;;;;;4.40;1.58;;;;;;;;;;6132517;28;20106;-87
2024/01/26 13:52:59;;;;;;;6.32;1.35;;;;;;;;;;6133090;28;20055;-87
2024/01/26 13:56:01;;;;;;;2.17;0.60;;;;;;;;;;6138231;28;20075;-87
2024/01/26 13:59:06;;;;;;;4.65;0.80;;;;;;;;;;6152830;28;20050;-86
2024/01/26 14:02:09;;;;;;;2.22;0.57;;;;;;;;;;6147213;28;20116;-87
2024/01/26 14:05:13;;;;;;;3.85;0.75;;;;;;;;;;6151806;28;20083;-87
2024/01/26 14:08:15;;;;;;;2.05;0.65;;;;;;;;;;6139286;28;20043;-86
2024/01/26 14:11:19;;;;;;;2.58;1.45;;;;;;;;;;6136789;28;20126;-85
2024/01/26 14:14:22;;;;;;;4.03;0.93;;;;;;;;;;6121326;28;20047;-86
2024/01/26 14:17:24;;;;;;;3.15;0.70;;;;;;;;;;6145448;28;20046;-86
2024/01/26 14:20:27;;;;;;;2.50;1.15;;;;;;;;;;6141890;28;20067;-86
2024/01/26 14:23:29;;;;;;;3.95;1.20;;;;;;;;;;6134624;28;20043;-85
2024/01/26 14:26:32;;;;;;;1.42;0.50;;;;;;;;;;6138381;28;20054;-86
2024/01/26 14:29:34;;;;;;;3.38;0.60;;;;;;;;;;6156222;28;20548;-86
2024/01/26 14:32:36;;;;;;;1.48;0.32;;;;;;;;;;6156012;28;20604;-86
2024/01/26 14:35:41;;;;;;;1.95;0.52;;;;;;;;;;6136283;28;20516;-86
2024/01/26 14:38:43;;;;;;;1.98;0.98;;;;;;;;;;6147119;28;20042;-86
2024/01/26 14:41:45;;;;;;;4.47;0.88;;;;;;;;;;6129307;28;20050;-86
2024/01/26 14:44:47;;;;;;;2.72;0.70;;;;;;;;;;6123005;28;20055;-87
2024/01/26 14:47:50;;;;;;;2.08;0.80;;;;;;;;;;6148992;28;20051;-88
2024/01/26 14:50:54;;;;;;;2.05;0.70;;;;;;;;;;6147186;28;20062;-88
2024/01/26 14:53:56;;;;;;;1.65;0.70;;;;;;;;;;6141583;28;20049;-86
2024/01/26 14:56:58;;;;;;;0.75;0.43;;;;;;;;;;6148733;28;20058;-87
2024/01/26 15:00:00;;;;;;;2.72;0.70;;;;;;;;;;6142406;28;20061;-87
2024/01/26 15:03:02;;;;;;;5.15;0.80;;;;;;;;;;6126209;28;20113;-87
2024/01/26 15:06:07;;;;;;;5.82;1.10;;;;;;;;;;6136974;28;20103;-87
2024/01/26 15:09:11;;;;;;;8.43;1.05;;;;;;;;;;6109518;28;20043;-88
2024/01/26 15:12:13;;;;;;;4.88;0.80;;;;;;;;;;6109605;28;20051;-87
2024/01/26 15:15:18;;;;;;;3.22;0.77;;;;;;;;;;6139480;28;20537;-87
2024/01/26 15:18:20;;;;;;;3.17;0.73;;;;;;;;;;6152642;28;20052;-89
2024/01/26 15:21:22;;;;;;;4.75;1.02;;;;;;;;;;6134216;28;20059;-87
2024/01/26 15:24:25;;;;;;;2.13;0.73;;;;;;;;;;6144868;28;20047;-88
2024/01/26 15:27:28;;;;;;;3.63;1.00;;;;;;;;;;6141535;28;20670;-86
2024/01/26 15:30:30;;;;;;;4.43;0.80;;;;;;;;;;6145488;28;20134;-86
2024/01/26 15:33:32;;;;;;;2.10;1.10;;;;;;;;;;6142733;28;20466;-88
2024/01/26 15:36:34;;;;;;;4.93;0.75;;;;;;;;;;6139319;28;20074;-88
2024/01/26 15:39:36;;;;;;;5.18;0.82;;;;;;;;;;6125551;28;20378;-87
2024/01/26 15:42:39;;;;;;;1.40;0.60;;;;;;;;;;6121827;28;20418;-88
2024/01/26 15:45:41;;;;;;;1.65;1.15;;;;;;;;;;6135765;28;20051;-86
2024/01/26 15:48:43;;;;;;;1.95;0.63;;;;;;;;;;6132369;28;20462;-86
2024/01/26 15:51:45;;;;;;;2.28;0.70;;;;;;;;;;6137803;28;20051;-87
2024/01/26 15:54:47;;;;;;;5.82;0.82;;;;;;;;;;6129852;28;20432;-87
2024/01/26 15:57:48;;;;;;;4.57;0.63;;;;;;;;;;6124789;28;20075;-87
2024/01/26 16:00:50;;;;;;;3.80;1.75;;;;;;;;;;6150238;28;20526;-88
2024/01/26 16:03:52;;;;;;;5.88;0.77;;;;;;;;;;6128365;28;20051;-88
2024/01/26 16:06:54;;;;;;;3.72;0.90;;;;;;;;;;6137676;28;20061;-88
2024/01/26 16:09:56;;;;;;;6.18;1.00;;;;;;;;;;6129024;28;20551;-86
2024/01/26 16:12:58;;;;;;;3.08;0.77;;;;;;;;;;6142559;28;20076;-87
2024/01/26 16:16:00;;;;;;;3.88;1.20;;;;;;;;;;6128407;28;20320;-85
2024/01/26 16:19:03;;;;;;;3.28;0.70;;;;;;;;;;6150126;28;20106;-87
2024/01/26 16:22:05;;;;;;;6.50;0.90;;;;;;;;;;6150084;28;20113;-88
2024/01/26 16:25:08;;;;;;;6.18;1.02;;;;;;;;;;6156409;28;20047;-86
2024/01/26 16:28:10;;;;;;;6.70;1.52;;;;;;;;;;6133463;28;20075;-86
2024/01/26 16:31:11;;;;;;;8.30;0.93;;;;;;;;;;6122734;28;20471;-87
2024/01/26 16:34:16;;;;;;;4.03;0.88;;;;;;;;;;6136840;28;20479;-87
2024/01/26 16:37:18;;;;;;;3.75;1.45;;;;;;;;;;6135695;28;20066;-83
2024/01/26 16:40:21;;;;;;;3.38;1.17;;;;;;;;;;6129975;28;20050;-86
2024/01/26 16:43:23;;;;;;;2.88;0.82;;;;;;;;;;6122959;28;20081;-86
2024/01/26 16:46:25;;;;;;;3.40;1.02;;;;;;;;;;6136917;28;20051;-84
2024/01/26 16:49:27;;;;;;;4.45;1.05;;;;;;;;;;6154576;28;20101;-87
2024/01/26 16:52:29;;;;;;;4.10;1.50;;;;;;;;;;6140431;28;20047;-85
2024/01/26 16:55:31;;;;;;;4.30;1.05;;;;;;;;;;6130802;28;20047;-85
2024/01/26 16:58:35;;;;;;;5.70;0.90;;;;;;;;;;6125320;28;20082;-84
2024/01/26 17:01:37;;;;;;;4.90;1.13;;;;;;;;;;6154745;28;20124;-83
2024/01/26 17:04:39;;;;;;;1.95;0.77;;;;;;;;;;6137522;28;20082;-85
2024/01/26 17:07:40;;;;;;;5.10;1.60;;;;;;;;;;6138768;28;20046;-83
2024/01/26 17:10:42;;;;;;;6.05;1.17;;;;;;;;;;6119223;28;20055;-83
2024/01/26 17:13:44;;;;;;;7.55;1.90;;;;;;;;;;6133261;28;20473;-85
2024/01/26 17:16:45;;;;;;;5.53;1.33;;;;;;;;;;6133675;28;20518;-84
2024/01/26 17:19:50;;;;;;;3.33;1.30;;;;;;;;;;6117397;28;20423;-85
2024/01/26 17:22:53;;;;;;;5.68;1.58;;;;;;;;;;6139248;28;20098;-84
2024/01/26 17:25:55;;;;;;;4.00;1.17;;;;;;;;;;6112628;28;20126;-85
2024/01/26 17:28:57;;;;;;;5.82;1.77;;;;;;;;;;6147142;28;20150;-85
2024/01/26 17:32:02;;;;;;;3.85;1.33;;;;;;;;;;6149320;28;20062;-83
2024/01/26 17:35:04;;;;;;;7.07;1.73;;;;;;;;;;6132278;28;20047;-84
2024/01/26 17:38:06;;;;;;;4.13;1.60;;;;;;;;;;6133745;28;20051;-82
2024/01/26 17:41:08;;;;;;;8.20;1.65;;;;;;;;;;6127011;28;20447;-82
2024/01/26 17:44:09;;;;;;;6.72;1.95;;;;;;;;;;6127744;28;20047;-82
2024/01/26 17:47:11;;;;;;;6.40;1.80;;;;;;;;;;6139625;28;20074;-82
2024/01/26 17:50:13;;;;;;;5.63;1.73;;;;;;;;;;6152993;28;20526;-82
2024/01/26 17:53:15;;;;;;;6.28;2.20;;;;;;;;;;6135813;28;20074;-83
2024/01/26 17:56:16;;;;;;;7.10;1.73;;;;;;;;;;6155587;28;20078;-84
2024/01/26 17:59:18;;;;;;;8.23;2.03;;;;;;;;;;6146928;28;20058;-85
2024/01/26 18:02:20;;;;;;;6.13;1.80;;;;;;;;;;6139679;28;20122;-84
2024/01/26 18:05:26;;;;;;;5.80;1.73;;;;;;;;;;6139992;28;20062;-84
2024/01/26 18:08:28;;;;;;;2.40;1.48;;;;;;;;;;6138439;28;20051;-84
2024/01/26 18:11:30;;;;;;;6.30;1.60;;;;;;;;;;6132121;28;20043;-84